Time;durP1;ratioP1;P1;durP2;ratioP2;P2;SDS_P1;SDS_P2;PMS_P1;PMS_P2;Temp;Humidity;BMP_temperature;BMP_pressure;BME280_temperature;BME280_humidity;BME280_pressure;Samples;Min_cycle;Max_cycle;Signal;HPM_P1;HPM_P2
2022/12/07 00:01:38;;;;;;;12.68;1.65;;;2.50;99.90;;;;;;4992244;28;20057;-73
2022/12/07 00:04:05;;;;;;;9.50;1.50;;;2.50;99.90;;;;;;4992607;28;20070;-73
2022/12/07 00:06:39;;;;;;;10.35;1.30;;;2.60;99.90;;;;;;4992299;28;20045;-72
2022/12/07 00:09:06;;;;;;;8.02;2.03;;;2.50;99.90;;;;;;4992775;28;20077;-73
2022/12/07 00:11:33;;;;;;;12.45;1.58;;;2.50;99.90;;;;;;5009995;28;20053;-73
2022/12/07 00:14:01;;;;;;;10.60;1.42;;;2.50;99.90;;;;;;4992738;28;20410;-73
2022/12/07 00:16:30;;;;;;;10.48;1.40;;;2.50;99.90;;;;;;5010525;28;20560;-73
2022/12/07 00:18:55;;;;;;;7.75;1.40;;;2.50;99.90;;;;;;4988963;28;20248;-73
2022/12/07 00:21:24;;;;;;;9.30;1.35;;;2.50;99.90;;;;;;4973139;28;20162;-73
2022/12/07 00:23:51;;;;;;;15.68;1.23;;;2.50;99.90;;;;;;4994958;28;20658;-73
2022/12/07 00:26:25;;;;;;;7.85;1.27;;;2.50;99.90;;;;;;4992287;28;20060;-73
2022/12/07 00:28:54;;;;;;;11.68;1.42;;;2.60;99.90;;;;;;5009941;28;20099;-73
2022/12/07 00:31:23;;;;;;;5.90;1.02;;;2.60;99.90;;;;;;5009677;28;20054;-73
2022/12/07 00:33:50;;;;;;;6.95;1.20;;;2.70;99.90;;;;;;5009898;28;20050;-72
2022/12/07 00:36:19;;;;;;;6.95;1.02;;;2.70;99.90;;;;;;4992854;28;20064;-74
2022/12/07 00:38:44;;;;;;;9.40;1.17;;;2.90;99.90;;;;;;5009738;28;20439;-72
2022/12/07 00:41:13;;;;;;;6.05;0.98;;;2.90;99.90;;;;;;5009540;28;20145;-73
2022/12/07 00:43:40;;;;;;;8.60;1.20;;;3.00;99.90;;;;;;5009557;28;20452;-73
2022/12/07 00:46:05;;;;;;;10.27;1.20;;;3.00;99.90;;;;;;4992405;28;20058;-73
2022/12/07 00:48:31;;;;;;;9.13;1.00;;;3.00;99.90;;;;;;4991944;28;20056;-73
2022/12/07 00:50:57;;;;;;;10.73;0.90;;;2.90;99.90;;;;;;5009369;28;20405;-72
2022/12/07 00:53:23;;;;;;;12.45;1.15;;;2.90;99.90;;;;;;5009762;28;20071;-73
2022/12/07 00:55:48;;;;;;;9.10;0.88;;;2.90;99.90;;;;;;5011489;28;20393;-73
2022/12/07 00:58:15;;;;;;;5.88;0.85;;;2.90;99.90;;;;;;5013296;28;20049;-73
2022/12/07 01:00:42;;;;;;;6.85;1.40;;;3.00;99.90;;;;;;4995496;28;20112;-73
2022/12/07 01:03:09;;;;;;;11.90;1.58;;;2.90;99.90;;;;;;5013431;28;20068;-73
2022/12/07 01:05:35;;;;;;;5.57;0.90;;;3.00;99.90;;;;;;4995664;28;20049;-73
2022/12/07 01:08:01;;;;;;;9.73;1.42;;;3.00;99.90;;;;;;4996853;28;20053;-74
2022/12/07 01:10:30;;;;;;;7.72;1.00;;;3.00;99.90;;;;;;5013522;28;20050;-74
2022/12/07 01:12:55;;;;;;;5.43;0.85;;;3.10;99.90;;;;;;5013347;28;20110;-73
2022/12/07 01:15:21;;;;;;;10.25;1.00;;;3.10;99.90;;;;;;4995521;28;20437;-73
2022/12/07 01:17:46;;;;;;;6.93;0.80;;;3.10;99.90;;;;;;5014188;28;20116;-73
2022/12/07 01:20:13;;;;;;;5.30;1.00;;;3.10;99.90;;;;;;4994915;28;20477;-73
2022/12/07 01:22:43;;;;;;;9.90;0.95;;;3.10;99.90;;;;;;5013146;28;20046;-73
2022/12/07 01:25:11;;;;;;;8.85;1.30;;;3.10;99.90;;;;;;5012970;28;20053;-74
2022/12/07 01:27:37;;;;;;;13.57;1.10;;;3.10;99.90;;;;;;5013183;28;20116;-74
2022/12/07 01:30:06;;;;;;;9.65;1.00;;;3.10;99.90;;;;;;5013006;28;20100;-75
2022/12/07 01:32:32;;;;;;;10.52;1.25;;;3.10;99.90;;;;;;5012933;28;20071;-74
2022/12/07 01:34:58;;;;;;;10.68;1.10;;;3.20;99.90;;;;;;4994583;28;20125;-74
2022/12/07 01:37:23;;;;;;;12.32;1.30;;;3.20;99.90;;;;;;4995276;28;20527;-73
2022/12/07 01:39:50;;;;;;;12.48;1.30;;;3.20;99.90;;;;;;4995848;28;20045;-73
2022/12/07 01:42:18;;;;;;;10.20;1.63;;;3.30;99.90;;;;;;4994894;28;20121;-73
2022/12/07 01:45:18;;;;;;;7.28;1.15;;;3.30;99.90;;;;;;5012517;28;20050;-73
2022/12/07 01:47:48;;;;;;;13.95;1.75;;;3.30;99.90;;;;;;4994699;28;20065;-73
2022/12/07 01:50:14;;;;;;;7.18;1.15;;;3.30;99.90;;;;;;4995442;28;20401;-73
2022/12/07 01:52:43;;;;;;;12.02;1.35;;;3.30;99.90;;;;;;5012361;28;20046;-73
2022/12/07 01:55:13;;;;;;;7.45;1.23;;;3.20;99.90;;;;;;5012329;28;20450;-73
2022/12/07 01:57:47;;;;;;;12.05;1.10;;;3.20;99.90;;;;;;4994925;28;20057;-73
2022/12/07 02:00:13;;;;;;;8.93;1.10;;;3.20;99.90;;;;;;5012813;28;20081;-73
2022/12/07 02:03:06;;;;;;;10.02;1.55;;;3.20;99.90;;;;;;5012278;28;20163;-73
2022/12/07 02:05:33;;;;;;;10.35;1.00;;;3.20;99.90;;;;;;5011834;28;20049;-72
2022/12/07 02:07:59;;;;;;;5.85;0.73;;;3.20;99.90;;;;;;5012027;28;20081;-73
2022/12/07 02:10:27;;;;;;;10.75;1.20;;;3.20;99.90;;;;;;4995437;28;20531;-73
2022/12/07 02:13:02;;;;;;;8.45;1.30;;;3.20;99.90;;;;;;5012158;28;20070;-73
2022/12/07 02:15:40;;;;;;;10.35;1.15;;;3.10;99.90;;;;;;4994217;28;20062;-73
2022/12/07 02:18:41;;;;;;;13.02;1.52;;;3.10;99.90;;;;;;4994168;28;20049;-72
2022/12/07 02:21:25;;;;;;;9.63;1.40;;;3.10;99.90;;;;;;5012583;28;20046;-73
2022/12/07 02:24:02;;;;;;;6.93;1.10;;;3.20;99.90;;;;;;4994391;28;20058;-73
2022/12/07 02:26:45;;;;;;;11.35;1.50;;;3.10;99.90;;;;;;5012772;28;20049;-73
2022/12/07 02:29:34;;;;;;;14.35;1.83;;;3.10;99.90;;;;;;4994463;28;20046;-73
2022/12/07 02:32:27;;;;;;;11.00;1.65;;;3.20;99.90;;;;;;5011642;28;20049;-73
2022/12/07 02:35:25;;;;;;;6.88;0.80;;;3.10;99.90;;;;;;5011404;28;20468;-74
2022/12/07 02:38:18;;;;;;;8.60;1.33;;;3.20;99.90;;;;;;4954192;28;20617;-73
2022/12/07 02:40:57;;;;;;;10.18;0.98;;;3.20;99.90;;;;;;4970241;28;20538;-73
2022/12/07 02:43:33;;;;;;;7.53;0.90;;;3.20;99.90;;;;;;4954051;28;20062;-73
2022/12/07 02:46:10;;;;;;;15.15;0.80;;;3.20;99.90;;;;;;4953682;28;20494;-73
2022/12/07 02:48:38;;;;;;;10.77;1.20;;;3.20;99.90;;;;;;4969253;28;20444;-72
2022/12/07 02:51:04;;;;;;;5.20;0.95;;;3.20;99.90;;;;;;4986992;28;20054;-73
2022/12/07 02:53:32;;;;;;;4.55;1.00;;;3.20;99.90;;;;;;4989048;28;20398;-73
2022/12/07 02:56:08;;;;;;;14.27;1.67;;;3.20;99.90;;;;;;4987063;28;20086;-73
2022/12/07 02:58:49;;;;;;;8.43;1.25;;;3.20;99.90;;;;;;4988879;28;20089;-72
2022/12/07 03:01:14;;;;;;;8.43;1.00;;;3.10;99.90;;;;;;4958159;28;20118;-73
2022/12/07 03:03:52;;;;;;;11.52;1.50;;;3.10;99.90;;;;;;4965109;28;20524;-72
2022/12/07 03:06:28;;;;;;;8.82;0.85;;;3.10;99.90;;;;;;4963858;28;20415;-73
2022/12/07 03:09:13;;;;;;;7.07;1.20;;;3.00;99.90;;;;;;4950289;29;20158;-73
2022/12/07 03:11:44;;;;;;;;;;;3.00;99.90;;;;;;4949469;28;20055;-72
2022/12/07 03:14:23;;;;;;;9.02;1.10;;;3.10;99.90;;;;;;4956183;28;20001;-73
2022/12/07 03:16:58;;;;;;;7.38;1.10;;;3.00;99.90;;;;;;4954386;28;20051;-73
2022/12/07 03:19:26;;;;;;;7.45;0.98;;;3.00;99.90;;;;;;4989049;28;20398;-73
2022/12/07 03:22:08;;;;;;;11.35;1.10;;;3.00;99.90;;;;;;5001157;28;20038;-73
2022/12/07 03:24:41;;;;;;;8.88;1.20;;;3.00;99.90;;;;;;4992850;28;20082;-73
2022/12/07 03:27:15;;;;;;;6.07;0.93;;;3.00;99.90;;;;;;5010529;28;20111;-72
2022/12/07 03:29:47;;;;;;;4.45;0.98;;;3.00;99.90;;;;;;4992467;28;20046;-73
2022/12/07 03:32:23;;;;;;;12.20;1.17;;;3.00;99.90;;;;;;5011355;28;20064;-72
2022/12/07 03:35:05;;;;;;;10.98;1.05;;;3.00;99.90;;;;;;5010067;28;20094;-73
2022/12/07 03:37:36;;;;;;;9.30;1.38;;;3.10;99.90;;;;;;4992569;28;20093;-73
2022/12/07 03:40:34;;;;;;;7.63;1.00;;;3.10;99.90;;;;;;5010315;28;20168;-72
2022/12/07 03:43:02;;;;;;;11.68;1.15;;;3.10;99.90;;;;;;4993679;28;20046;-73
2022/12/07 03:45:53;;;;;;;12.43;1.25;;;3.10;99.90;;;;;;5010539;28;20108;-73
2022/12/07 03:48:33;;;;;;;15.55;1.60;;;3.00;99.90;;;;;;4988010;28;20052;-73
2022/12/07 03:51:05;;;;;;;6.15;1.35;;;3.30;99.90;;;;;;4973250;28;20105;-73
2022/12/07 03:54:04;;;;;;;10.70;1.13;;;3.00;99.90;;;;;;4984361;28;20046;-73
2022/12/07 03:56:32;;;;;;;10.85;1.20;;;2.90;99.90;;;;;;4949221;28;20466;-73
2022/12/07 03:58:58;;;;;;;11.02;1.30;;;2.90;99.90;;;;;;4949516;29;20065;-72
2022/12/07 04:01:24;;;;;;;8.35;1.02;;;2.90;99.90;;;;;;4949628;29;20055;-72
2022/12/07 04:03:50;;;;;;;12.10;1.23;;;2.80;99.90;;;;;;4950834;28;20078;-73
2022/12/07 04:06:16;;;;;;;8.20;1.13;;;2.80;99.90;;;;;;4952077;28;20090;-72
2022/12/07 04:08:41;;;;;;;8.35;1.10;;;2.80;99.90;;;;;;4958270;28;20047;-72
2022/12/07 04:11:07;;;;;;;11.60;1.15;;;2.80;99.90;;;;;;4933267;29;20055;-73
2022/12/07 04:14:18;;;;;;;9.43;0.95;;;2.80;99.90;;;;;;4937495;28;20454;-73
2022/12/07 04:16:18;;;;;;;8.98;1.00;;;2.80;99.90;;;;;;4968448;28;20994;-74
2022/12/07 04:18:44;;;;;;;12.70;1.25;;;2.90;99.90;;;;;;4966725;28;20094;-73
2022/12/07 04:21:09;;;;;;;12.70;1.38;;;2.80;99.90;;;;;;4966945;28;20477;-73
2022/12/07 04:23:35;;;;;;;11.43;1.10;;;2.80;99.90;;;;;;4933145;29;20134;-73
2022/12/07 04:26:00;;;;;;;6.72;0.93;;;2.80;99.90;;;;;;4949069;29;20055;-73
2022/12/07 04:28:26;;;;;;;11.15;1.15;;;2.80;99.90;;;;;;4950093;28;20130;-73
2022/12/07 04:30:51;;;;;;;5.55;0.90;;;2.80;99.90;;;;;;4951757;28;20050;-73
2022/12/07 04:33:17;;;;;;;13.93;1.13;;;2.80;99.90;;;;;;4992632;28;20168;-73
2022/12/07 04:35:43;;;;;;;7.57;0.90;;;2.80;99.90;;;;;;5013739;28;20081;-73
2022/12/07 04:38:09;;;;;;;6.68;0.70;;;2.70;99.90;;;;;;5017612;28;20046;-73
2022/12/07 04:40:34;;;;;;;9.85;0.95;;;2.80;99.90;;;;;;5014822;28;20075;-73
2022/12/07 04:43:00;;;;;;;7.55;0.95;;;2.70;99.90;;;;;;5013764;28;20600;-73
2022/12/07 04:45:25;;;;;;;7.65;0.80;;;3.30;99.90;;;;;;5013762;28;20469;-73
2022/12/07 04:47:51;;;;;;;6.10;0.93;;;2.70;99.90;;;;;;4995863;28;20052;-73
2022/12/07 04:50:17;;;;;;;9.20;0.82;;;2.70;99.90;;;;;;5014728;28;20072;-73
2022/12/07 04:52:42;;;;;;;9.57;1.05;;;2.60;99.90;;;;;;5013281;28;20464;-73
2022/12/07 04:55:08;;;;;;;9.05;1.13;;;2.60;99.90;;;;;;4995933;28;20046;-73
2022/12/07 04:57:34;;;;;;;4.93;0.60;;;2.60;99.90;;;;;;5013489;28;20477;-73
2022/12/07 04:59:59;;;;;;;8.85;0.68;;;2.60;99.90;;;;;;5014331;28;20114;-73
2022/12/07 05:02:25;;;;;;;11.10;1.00;;;2.50;99.90;;;;;;4995648;28;20088;-73
2022/12/07 05:04:51;;;;;;;4.38;0.70;;;2.50;99.90;;;;;;5013697;28;20042;-73
2022/12/07 05:07:17;;;;;;;4.03;0.80;;;2.40;99.90;;;;;;5029922;28;20044;-73
2022/12/07 05:09:42;;;;;;;6.28;0.90;;;2.40;99.90;;;;;;5015582;28;20045;-72
2022/12/07 05:12:08;;;;;;;8.82;0.80;;;2.30;99.90;;;;;;5013198;28;20120;-72
2022/12/07 05:14:33;;;;;;;10.13;1.58;;;2.30;99.90;;;;;;5032759;28;20088;-72
2022/12/07 05:16:59;;;;;;;11.00;1.00;;;2.30;99.90;;;;;;5015291;28;20060;-72
2022/12/07 05:19:26;;;;;;;13.20;0.90;;;2.30;99.90;;;;;;5015167;28;20117;-72
2022/12/07 05:21:51;;;;;;;7.75;1.95;;;2.30;99.90;;;;;;5013375;28;20100;-72
2022/12/07 05:24:17;;;;;;;12.98;2.58;;;2.20;99.90;;;;;;5014370;28;20080;-72
2022/12/07 05:26:44;;;;;;;6.55;1.73;;;2.10;99.90;;;;;;5014958;28;20164;-72
2022/12/07 05:29:12;;;;;;;8.05;0.80;;;2.10;99.90;;;;;;5014311;28;20054;-72
2022/12/07 05:31:38;;;;;;;6.10;1.05;;;2.30;99.90;;;;;;5014063;28;20045;-72
2022/12/07 05:34:04;;;;;;;3.97;0.80;;;1.90;99.90;;;;;;4996457;28;20054;-72
2022/12/07 05:36:31;;;;;;;8.63;1.10;;;1.90;99.90;;;;;;5008412;28;20381;-72
2022/12/07 05:38:57;;;;;;;7.57;1.45;;;1.90;99.90;;;;;;5015068;28;20077;-72
2022/12/07 05:44:07;;;;;;;6.90;1.20;;;1.90;99.90;;;;;;5012234;28;20073;-72
2022/12/07 05:46:33;;;;;;;6.25;1.23;;;1.90;99.90;;;;;;5026218;28;20515;-72
2022/12/07 05:48:59;;;;;;;9.57;1.33;;;1.90;99.90;;;;;;5013788;28;20101;-72
2022/12/07 05:51:24;;;;;;;12.35;1.45;;;1.90;99.90;;;;;;4994777;28;20054;-72
2022/12/07 05:53:50;;;;;;;10.30;1.08;;;1.90;99.90;;;;;;5010600;28;20057;-72
2022/12/07 05:56:15;;;;;;;16.05;1.40;;;1.90;99.90;;;;;;4994262;28;20046;-72
2022/12/07 06:01:26;;;;;;;12.20;1.52;;;2.10;99.90;;;;;;5012135;28;20049;-72
2022/12/07 06:03:51;;;;;;;6.05;1.10;;;2.20;99.90;;;;;;5010719;28;20108;-72
2022/12/07 06:06:17;;;;;;;8.85;1.33;;;2.20;99.90;;;;;;4988733;28;20038;-72
2022/12/07 06:08:42;;;;;;;16.83;1.05;;;2.20;99.90;;;;;;4992361;28;20833;-72
2022/12/07 06:13:52;;;;;;;6.20;1.20;;;2.20;99.90;;;;;;4993554;28;20053;-72
2022/12/07 06:16:18;;;;;;;12.82;1.05;;;2.20;99.90;;;;;;4992368;28;20038;-72
2022/12/07 06:18:44;;;;;;;7.68;1.02;;;2.20;99.90;;;;;;5004119;28;20062;-72
2022/12/07 06:21:09;;;;;;;10.05;0.90;;;2.20;99.90;;;;;;4994503;28;20046;-72
2022/12/07 06:23:35;;;;;;;6.32;0.90;;;2.30;99.90;;;;;;5011764;28;20042;-72
2022/12/07 06:26:00;;;;;;;3.83;0.60;;;2.30;99.90;;;;;;4992669;28;20049;-73
2022/12/07 06:28:26;;;;;;;5.63;0.70;;;2.30;99.90;;;;;;5012094;28;20481;-73
2022/12/07 06:30:59;;;;;;;7.38;1.00;;;2.40;99.90;;;;;;4993964;28;20050;-72
2022/12/07 06:33:25;;;;;;;10.25;1.20;;;2.40;99.90;;;;;;5009889;28;20054;-72
2022/12/07 06:35:51;;;;;;;4.88;1.10;;;2.50;99.90;;;;;;5009195;28;20084;-73
2022/12/07 06:38:16;;;;;;;12.60;1.38;;;2.50;99.90;;;;;;5011403;28;20115;-72
2022/12/07 06:40:42;;;;;;;3.55;1.05;;;2.50;99.90;;;;;;5011313;28;20065;-72
2022/12/07 06:43:08;;;;;;;8.43;0.82;;;2.50;99.90;;;;;;4993598;28;20054;-72
2022/12/07 06:45:33;;;;;;;3.92;1.05;;;2.50;99.90;;;;;;5009736;28;20053;-72
2022/12/07 06:47:59;;;;;;;7.75;0.95;;;2.50;99.90;;;;;;5021586;28;20057;-72
2022/12/07 06:50:24;;;;;;;10.38;0.90;;;2.50;99.90;;;;;;5031085;28;20128;-71
2022/12/07 06:52:51;;;;;;;8.52;0.90;;;2.50;99.90;;;;;;5030522;28;20054;-72
2022/12/07 06:55:16;;;;;;;12.43;1.20;;;2.40;99.90;;;;;;5012039;28;20511;-72
2022/12/07 06:57:42;;;;;;;5.57;0.85;;;2.40;99.90;;;;;;5029132;28;20045;-72
2022/12/07 07:00:08;;;;;;;6.20;0.80;;;2.30;99.90;;;;;;5011833;28;20382;-72
2022/12/07 07:02:34;;;;;;;7.18;0.90;;;2.30;99.90;;;;;;5012062;28;20060;-72
2022/12/07 07:04:59;;;;;;;7.85;1.02;;;2.20;99.90;;;;;;4993716;28;20389;-72
2022/12/07 07:07:25;;;;;;;4.90;0.90;;;2.20;99.90;;;;;;5021242;28;20085;-72
2022/12/07 07:09:51;;;;;;;5.20;0.80;;;2.20;99.90;;;;;;5010677;28;20465;-72
2022/12/07 07:12:16;;;;;;;4.10;0.85;;;2.20;99.90;;;;;;4993263;28;20089;-72
2022/12/07 07:14:43;;;;;;;8.75;1.30;;;2.10;99.90;;;;;;5010802;28;20129;-72
2022/12/07 07:17:09;;;;;;;5.95;0.90;;;2.20;99.90;;;;;;4993619;28;20093;-72
2022/12/07 07:19:34;;;;;;;7.68;1.15;;;2.20;99.90;;;;;;4993839;28;20097;-72
2022/12/07 07:22:00;;;;;;;8.20;1.30;;;2.10;99.90;;;;;;4976579;28;20060;-73
2022/12/07 07:24:26;;;;;;;6.68;1.05;;;2.10;99.90;;;;;;5010735;28;20115;-72
2022/12/07 07:26:51;;;;;;;6.60;0.90;;;2.10;99.90;;;;;;5010653;28;20513;-72
2022/12/07 07:29:17;;;;;;;9.88;1.20;;;2.10;99.90;;;;;;4994404;28;20393;-73
2022/12/07 07:31:42;;;;;;;6.93;0.70;;;2.10;99.90;;;;;;5009824;28;20042;-72
2022/12/07 07:34:08;;;;;;;9.80;1.08;;;2.10;99.90;;;;;;4993072;28;20921;-72
2022/12/07 07:36:34;;;;;;;6.05;1.00;;;2.10;99.90;;;;;;5010439;28;20049;-72
2022/12/07 07:38:59;;;;;;;9.48;1.58;;;2.00;99.90;;;;;;5011673;28;20129;-72
2022/12/07 07:41:25;;;;;;;4.45;0.85;;;2.00;99.90;;;;;;5010833;28;20433;-72
2022/12/07 07:43:51;;;;;;;7.38;1.20;;;1.90;99.90;;;;;;4993099;28;20436;-72
2022/12/07 07:46:16;;;;;;;9.50;1.20;;;1.90;99.90;;;;;;5010532;28;20042;-72
2022/12/07 07:48:42;;;;;;;8.38;1.15;;;1.90;99.90;;;;;;5010302;28;20065;-73
2022/12/07 07:51:08;;;;;;;8.82;1.42;;;1.90;99.90;;;;;;4993375;28;20405;-74
2022/12/07 07:53:34;;;;;;;9.75;1.33;;;1.80;99.90;;;;;;5010359;28;20045;-73
2022/12/07 07:55:59;;;;;;;11.63;1.58;;;1.90;99.90;;;;;;5010274;28;20404;-73
2022/12/07 07:58:25;;;;;;;8.32;1.50;;;1.90;99.90;;;;;;5010008;28;20460;-73
2022/12/07 08:00:51;;;;;;;14.10;1.88;;;1.80;99.90;;;;;;4992181;28;20099;-73
2022/12/07 08:03:17;;;;;;;6.60;1.38;;;1.80;99.90;;;;;;5009525;28;20037;-73
2022/12/07 08:05:43;;;;;;;10.10;2.17;;;1.80;99.90;;;;;;5009840;28;20512;-72
2022/12/07 08:08:08;;;;;;;11.63;1.83;;;1.80;99.90;;;;;;4992605;28;20049;-72
2022/12/07 08:10:35;;;;;;;11.88;1.52;;;1.80;99.90;;;;;;5009427;28;20054;-72
2022/12/07 08:13:15;;;;;;;13.48;1.67;;;2.00;99.90;;;;;;4992237;28;20156;-72
2022/12/07 08:15:46;;;;;;;13.50;1.90;;;2.00;99.90;;;;;;5010193;28;20082;-72
2022/12/07 08:18:13;;;;;;;11.18;1.60;;;2.00;99.90;;;;;;4992402;28;20072;-72
2022/12/07 08:20:39;;;;;;;11.45;2.08;;;2.00;99.90;;;;;;5010146;28;20448;-73
2022/12/07 08:23:06;;;;;;;11.98;1.80;;;2.00;99.90;;;;;;5009695;28;20096;-72
2022/12/07 08:25:32;;;;;;;8.45;1.40;;;2.00;99.90;;;;;;4991735;28;20061;-72
2022/12/07 08:27:58;;;;;;;16.27;2.17;;;2.00;99.90;;;;;;4992285;28;20151;-74
2022/12/07 08:30:24;;;;;;;7.07;2.13;;;2.00;99.90;;;;;;5009935;28;20454;-72
2022/12/07 08:32:50;;;;;;;9.18;2.00;;;2.00;99.90;;;;;;5009437;28;20100;-72
2022/12/07 08:35:16;;;;;;;15.60;2.20;;;2.00;99.90;;;;;;5009782;28;20046;-72
2022/12/07 08:37:42;;;;;;;11.55;1.50;;;2.00;99.90;;;;;;4992138;28;20046;-73
2022/12/07 08:40:09;;;;;;;16.17;1.73;;;2.10;99.90;;;;;;5008367;28;20053;-70
2022/12/07 08:42:39;;;;;;;10.63;1.35;;;2.10;99.90;;;;;;5008029;28;20096;-72
2022/12/07 08:45:11;;;;;;;12.27;1.67;;;2.10;99.90;;;;;;5029666;28;20393;-72
2022/12/07 08:47:41;;;;;;;8.95;1.35;;;2.20;99.90;;;;;;4997449;28;20136;-72
2022/12/07 08:50:08;;;;;;;12.20;1.80;;;2.10;99.90;;;;;;4991939;28;20041;-72
2022/12/07 08:52:35;;;;;;;16.88;2.08;;;2.10;99.90;;;;;;5009516;28;20087;-72
2022/12/07 08:55:03;;;;;;;14.57;1.80;;;2.20;99.90;;;;;;5009408;28;20045;-72
2022/12/07 08:57:29;;;;;;;13.77;1.60;;;2.20;99.90;;;;;;5012931;28;20083;-70
2022/12/07 08:59:55;;;;;;;14.02;1.30;;;2.30;99.90;;;;;;4998647;28;20118;-71
2022/12/07 09:02:21;;;;;;;16.33;1.58;;;2.30;99.90;;;;;;4991873;28;20093;-71
2022/12/07 09:04:46;;;;;;;14.98;2.05;;;2.40;99.90;;;;;;5024900;28;20048;-72
2022/12/07 09:07:12;;;;;;;13.50;1.77;;;2.40;99.90;;;;;;5007385;28;20042;-72
2022/12/07 09:09:38;;;;;;;13.38;2.22;;;2.50;99.90;;;;;;5006601;28;20054;-72
2022/12/07 09:12:04;;;;;;;10.98;2.15;;;2.70;99.90;;;;;;4991043;28;20093;-72
2022/12/07 09:14:29;;;;;;;22.23;3.33;;;2.90;99.90;;;;;;5009576;28;20034;-71
2022/12/07 09:16:55;;;;;;;15.32;2.40;;;2.90;99.90;;;;;;4980680;28;20062;-72
2022/12/07 09:19:20;;;;;;;12.70;2.30;;;3.00;99.90;;;;;;4995863;28;20046;-72
2022/12/07 09:21:46;;;;;;;14.65;2.20;;;3.00;99.90;;;;;;5013077;28;20049;-72
2022/12/07 09:24:13;;;;;;;14.57;1.90;;;3.10;99.90;;;;;;5013360;28;20172;-72
2022/12/07 09:26:40;;;;;;;13.85;1.85;;;3.10;99.90;;;;;;5012725;28;20136;-73
2022/12/07 09:29:06;;;;;;;19.55;1.67;;;3.10;99.90;;;;;;5012922;28;20062;-73
2022/12/07 09:31:31;;;;;;;16.05;1.98;;;3.20;99.90;;;;;;5011810;28;20241;-74
2022/12/07 09:34:00;;;;;;;7.88;1.90;;;3.20;99.90;;;;;;5013906;28;20037;-73
2022/12/07 09:36:28;;;;;;;12.20;1.65;;;3.30;99.90;;;;;;5012886;28;20085;-74
2022/12/07 09:38:53;;;;;;;14.45;1.88;;;3.30;99.90;;;;;;5012889;28;20041;-73
2022/12/07 09:41:20;;;;;;;15.35;1.70;;;3.30;99.90;;;;;;5012567;28;20061;-74
2022/12/07 09:43:46;;;;;;;13.85;2.00;;;3.30;99.90;;;;;;5013652;28;20579;-74
2022/12/07 09:46:16;;;;;;;10.45;1.48;;;3.40;99.90;;;;;;5013534;28;20045;-75
2022/12/07 09:48:43;;;;;;;11.80;1.70;;;3.40;99.90;;;;;;4995422;28;20062;-74
2022/12/07 09:51:15;;;;;;;12.80;1.88;;;3.40;99.90;;;;;;5013143;28;20049;-76
2022/12/07 09:53:42;;;;;;;8.80;1.45;;;3.40;99.90;;;;;;4996669;28;20540;-74
2022/12/07 09:56:13;;;;;;;7.55;1.23;;;3.40;99.90;;;;;;4995682;28;20129;-73
2022/12/07 09:58:38;;;;;;;5.57;1.10;;;3.50;99.90;;;;;;5013062;28;20074;-75
2022/12/07 10:01:07;;;;;;;15.55;1.83;;;3.50;99.90;;;;;;5013231;28;20510;-74
2022/12/07 10:03:34;;;;;;;11.90;1.80;;;3.50;99.90;;;;;;5014539;28;20053;-73
2022/12/07 10:06:00;;;;;;;8.35;1.33;;;3.70;99.90;;;;;;5012923;28;20486;-73
2022/12/07 10:08:26;;;;;;;10.15;1.85;;;3.90;99.90;;;;;;5012899;28;20053;-72
2022/12/07 10:10:56;;;;;;;9.68;1.63;;;4.10;99.90;;;;;;5012958;28;20591;-73
2022/12/07 10:13:35;;;;;;;7.75;1.75;;;4.30;99.90;;;;;;4995243;28;20060;-76
2022/12/07 10:16:01;;;;;;;7.60;1.27;;;4.30;99.90;;;;;;5012788;28;20497;-73
2022/12/07 10:18:32;;;;;;;20.05;2.67;;;4.40;99.90;;;;;;4995332;28;20056;-73
2022/12/07 10:21:13;;;;;;;10.05;2.00;;;4.50;99.90;;;;;;5012762;28;20058;-72
2022/12/07 10:24:04;;;;;;;8.40;1.70;;;4.60;99.90;;;;;;5012610;28;20046;-72
2022/12/07 10:26:35;;;;;;;9.82;1.52;;;4.70;99.90;;;;;;5012460;28;20123;-73
2022/12/07 10:29:22;;;;;;;12.75;1.70;;;4.80;99.90;;;;;;5012355;28;20050;-72
2022/12/07 10:32:15;;;;;;;14.85;1.25;;;4.80;99.90;;;;;;5012153;28;20128;-75
2022/12/07 10:34:42;;;;;;;7.65;1.45;;;4.90;99.90;;;;;;5027546;28;20049;-72
2022/12/07 10:37:14;;;;;;;8.32;1.50;;;4.90;99.90;;;;;;5003139;28;20046;-72
2022/12/07 10:39:45;;;;;;;7.90;1.40;;;5.00;99.90;;;;;;5012405;28;20608;-72
2022/12/07 10:42:23;;;;;;;12.32;1.70;;;5.20;99.90;;;;;;5011911;28;20041;-72
2022/12/07 10:45:06;;;;;;;13.20;1.77;;;5.30;99.90;;;;;;5016470;28;20396;-73
2022/12/07 10:47:48;;;;;;;13.82;1.23;;;5.50;99.90;;;;;;5003153;28;20072;-72
2022/12/07 10:50:23;;;;;;;10.30;1.33;;;5.70;99.90;;;;;;4994457;28;20129;-72
2022/12/07 10:53:03;;;;;;;7.10;1.20;;;5.80;99.90;;;;;;5011705;28;20076;-71
2022/12/07 10:55:31;;;;;;;16.52;1.42;;;5.80;99.90;;;;;;4994452;28;20115;-72
2022/12/07 10:58:08;;;;;;;12.20;1.23;;;5.80;99.90;;;;;;5011775;28;20057;-72
2022/12/07 11:01:13;;;;;;;8.52;1.20;;;5.80;99.90;;;;;;4979025;28;20054;-71
2022/12/07 11:04:07;;;;;;;7.85;1.23;;;5.80;99.90;;;;;;5012142;28;20041;-72
2022/12/07 11:07:00;;;;;;;3.80;1.02;;;5.80;99.90;;;;;;5011676;28;20104;-73
2022/12/07 11:10:03;;;;;;;2.70;0.60;;;5.80;99.90;;;;;;5011777;28;20038;-73
2022/12/07 11:12:40;;;;;;;4.55;0.80;;;5.70;99.90;;;;;;5011620;28;20142;-72
2022/12/07 11:15:13;;;;;;;4.93;0.60;;;5.70;99.90;;;;;;5011662;28;20633;-72
2022/12/07 11:18:02;;;;;;;5.78;0.75;;;5.80;99.90;;;;;;5011569;28;20041;-73
2022/12/07 11:20:41;;;;;;;2.92;0.63;;;5.80;99.90;;;;;;4971051;28;20137;-73
2022/12/07 11:23:44;;;;;;;7.45;0.63;;;5.80;99.90;;;;;;4969992;28;20133;-72
2022/12/07 11:26:18;;;;;;;5.38;0.90;;;5.80;99.90;;;;;;4969880;28;20062;-73
2022/12/07 11:28:44;;;;;;;4.65;0.70;;;5.90;99.90;;;;;;4970114;28;20058;-72
2022/12/07 11:31:41;;;;;;;7.82;0.70;;;5.90;99.90;;;;;;4981048;28;20119;-72
2022/12/07 11:34:27;;;;;;;5.55;0.85;;;5.90;99.90;;;;;;4973241;28;20050;-72
2022/12/07 11:36:55;;;;;;;7.10;1.17;;;5.90;99.90;;;;;;4989646;28;20053;-72
2022/12/07 11:39:29;;;;;;;7.35;0.95;;;6.00;99.90;;;;;;4989406;28;20065;-72
2022/12/07 11:42:05;;;;;;;10.23;1.48;;;6.20;99.90;;;;;;4971548;28;20142;-73
2022/12/07 11:45:02;;;;;;;7.63;0.80;;;6.20;99.90;;;;;;4989578;28;20089;-72
2022/12/07 11:47:33;;;;;;;7.53;0.70;;;6.30;99.90;;;;;;4931231;29;20420;-71
2022/12/07 11:50:27;;;;;;;5.72;0.90;;;6.40;99.90;;;;;;4931144;29;20058;-74
2022/12/07 11:52:58;;;;;;;4.50;0.68;;;6.50;99.90;;;;;;4913649;29;20065;-72
2022/12/07 11:55:47;;;;;;;7.28;0.90;;;6.40;99.90;;;;;;4915483;29;20060;-71
2022/12/07 11:58:25;;;;;;;6.43;0.80;;;6.40;99.90;;;;;;4943816;29;20051;-74
2022/12/07 12:01:12;;;;;;;6.25;0.80;;;6.40;99.90;;;;;;4950655;29;20051;-72
2022/12/07 12:03:43;;;;;;;3.88;0.88;;;6.40;99.90;;;;;;4950278;29;20055;-72
2022/12/07 12:06:09;;;;;;;7.97;0.73;;;6.50;99.90;;;;;;4950294;29;20039;-74
2022/12/07 12:09:12;;;;;;;7.28;1.02;;;6.50;99.90;;;;;;4950228;29;20051;-72
2022/12/07 12:11:52;;;;;;;8.15;0.70;;;6.50;99.90;;;;;;4892509;29;20056;-72
2022/12/07 12:14:45;;;;;;;7.32;0.90;;;6.70;99.90;;;;;;4888601;29;20497;-74
2022/12/07 12:17:28;;;;;;;7.10;0.80;;;6.70;99.90;;;;;;4862468;29;20602;-73
2022/12/07 12:19:59;;;;;;;6.65;0.70;;;6.70;99.90;;;;;;4844008;29;20405;-72
2022/12/07 12:22:39;;;;;;;9.13;0.93;;;6.60;99.90;;;;;;4877250;29;20060;-72
2022/12/07 12:25:11;;;;;;;8.70;0.80;;;6.50;99.90;;;;;;4940071;29;20123;-72
2022/12/07 12:27:39;;;;;;;6.68;0.95;;;6.50;99.90;;;;;;4930757;29;20055;-73
2022/12/07 12:30:23;;;;;;;4.63;0.70;;;6.50;99.90;;;;;;4914928;29;20083;-72
2022/12/07 12:32:49;;;;;;;6.07;0.90;;;6.30;99.90;;;;;;4915342;29;20056;-72
2022/12/07 12:35:26;;;;;;;3.58;0.60;;;6.20;99.90;;;;;;4914683;29;20926;-72
2022/12/07 12:37:54;;;;;;;3.90;0.68;;;6.00;99.90;;;;;;4949164;29;20102;-73
2022/12/07 12:40:30;;;;;;;14.48;1.88;;;5.90;99.90;;;;;;4933402;29;20039;-73
2022/12/07 12:42:57;;;;;;;10.20;0.70;;;5.30;99.90;;;;;;4922352;29;20122;-74
2022/12/07 12:45:30;;;;;;;2.35;0.40;;;5.10;99.90;;;;;;4933234;29;20058;-73
2022/12/07 12:48:00;;;;;;;6.28;0.63;;;4.80;99.90;;;;;;4961311;28;20066;-73
2022/12/07 12:50:34;;;;;;;6.55;0.50;;;4.70;99.90;;;;;;4972448;28;20055;-76
2022/12/07 12:53:13;;;;;;;2.30;0.40;;;4.60;99.90;;;;;;5001734;28;20393;-73
2022/12/07 12:55:42;;;;;;;2.42;0.43;;;4.50;99.90;;;;;;4996138;28;20046;-73
2022/12/07 12:58:20;;;;;;;5.28;0.88;;;4.50;99.90;;;;;;4995954;28;20054;-75
2022/12/07 13:01:27;;;;;;;5.90;0.73;;;4.40;99.90;;;;;;5024992;28;20052;-72
2022/12/07 13:03:57;;;;;;;6.20;0.70;;;4.40;99.90;;;;;;4996977;28;20087;-74
2022/12/07 13:06:26;;;;;;;7.05;0.60;;;4.40;99.90;;;;;;5006778;28;20409;-73
2022/12/07 13:08:55;;;;;;;6.75;0.73;;;4.40;99.90;;;;;;4996046;28;20479;-74
2022/12/07 13:11:35;;;;;;;3.63;0.80;;;4.40;99.90;;;;;;5010757;28;20054;-72
2022/12/07 13:14:55;;;;;;;6.90;0.70;;;4.50;99.90;;;;;;5015123;28;20077;-72
2022/12/07 13:17:32;;;;;;;4.55;0.57;;;4.40;99.90;;;;;;4971865;28;20058;-72
2022/12/07 13:20:03;;;;;;;5.65;0.65;;;4.50;99.90;;;;;;4955750;28;20066;-72
2022/12/07 13:22:32;;;;;;;6.43;1.08;;;4.50;99.90;;;;;;4937515;28;20146;-72